Tubarao, Brazil
Current Conditions -  °F | °C
As of 8:00 AM on Thursday 18 Dec 2014 (Local Time) from SBCM Reporting Station
Broken Clouds Broken Clouds  
Wind Chill: 75°   Ceiling: 2000
Heat Index: 75°   Visibility: 6mi
Dew Point: 70°   Wind: 1mph
Humidity: 83%   Direction: 60°ENE
Pressure: 29.83"   Gusts: NA
Location:  28.48°S, 49.02°W
Report Text: SBCM 181000Z 06001KT 9999 BKN020 SCT070 24/21 Q1010
Loading
Personal Weather Stations






























Interactive Weather Map New forecast layout! Learn more

10-Day Weather Forecast

Advertisements
Track Severe Weather on mobile